ADDS METAR Data INFO
IDs: Format: Raw Decoded Include TAF

Data at: 2240 UTC 22 Aug 2017

KDAW 222151Z AUTO VRB05KT 10SM CLR 29/21 A2974 RMK AO2 SLP067 T02940206
KDAW 222051Z AUTO 18008KT 10SM FEW041 BKN055 30/21 A2976 RMK AO2 SLP073 T03000211 56032
KDAW 221951Z AUTO VRB05KT 10SM FEW037 31/21 A2977 RMK AO2 SLP077 T03110211
KDAW 221851Z AUTO VRB05KT 10SM SCT039 SCT050 31/21 A2982 RMK AO2 SLP093 T03060206
KDAW 221751Z AUTO VRB04KT 10SM FEW037 31/21 A2985 RMK AO2 SLP104 T03110206 10311 20200 58027
KDAW 221651Z AUTO VRB04KT 10SM FEW035 31/21 A2988 RMK AO2 SLP113 T03060211
KDAW 221551Z AUTO 18005KT 10SM CLR 30/22 A2991 RMK AO2 SLP124 T03000217
KDAW 221451Z AUTO VRB03KT 10SM CLR 28/21 A2993 RMK AO2 SLP131 T02780206 58018
KDAW 221351Z AUTO 15003KT 10SM CLR 25/19 A2995 RMK AO2 SLP138 T02500194
KDAW 221251Z AUTO 00000KT 10SM CLR 24/19 A2997 RMK AO2 SLP146 T02390189
KDAW 221151Z AUTO 00000KT 10SM CLR 20/17 A2999 RMK AO2 SLP151 T02000167 10200 20161 58002
KDAW 221051Z AUTO 00000KT 9SM CLR 18/16 A2999 RMK AO2 SLP153 T01830161
KDAW 220951Z AUTO 00000KT 9SM CLR 17/15 A3000 RMK AO2 SLP154 T01670150
KDAW 220851Z AUTO 00000KT 8SM CLR 17/15 A3000 RMK AO2 SLP153 T01670150 56014
KDAW 220751Z AUTO 00000KT 10SM CLR 17/15 A3000 RMK AO2 SLP155 T01670150
KDAW 220651Z AUTO 00000KT 10SM CLR 18/16 A3002 RMK AO2 SLP160 T01780156
KDAW 220551Z AUTO 00000KT 10SM CLR 18/16 A3004 RMK AO2 SLP166 T01830156 10239 20178 58001
KDAW 220451Z AUTO 00000KT 10SM CLR 20/16 A3004 RMK AO2 SLP168 T02000161 402940139
KDAW 220351Z AUTO 00000KT 10SM CLR 19/16 A3004 RMK AO2 SLP167 T01940161
KDAW 220251Z AUTO 00000KT 10SM CLR 21/16 A3004 RMK AO2 SLP166 T02110161 58004
KDAW 220151Z AUTO 00000KT 10SM CLR 21/17 A3005 RMK AO2 SLP171 T02110172
KDAW 220051Z AUTO 00000KT 10SM CLR 22/17 A3005 RMK AO2 SLP173 T02170172
KDAW 212351Z AUTO 00000KT 10SM CLR 24/17 A3005 RMK AO2 SLP172 T02390172 10294 20233 56002
KDAW 212251Z AUTO 00000KT 10SM CLR 26/17 A3005 RMK AO2 SLP172 T02610167
KDAW 212151Z AUTO VRB03KT 10SM CLR 28/17 A3005 RMK AO2 SLP173 T02780167
KDAW 212051Z AUTO 10SM CLR 29/17 A3006 RMK AO2 SLP174 T02890167 56012
KDAW 211951Z AUTO VRB05KT 10SM CLR 29/17 A3006 RMK AO2 SLP177 T02890172
KDAW 211851Z AUTO 00000KT 10SM FEW046 27/17 A3007 RMK AO2 SLP179 T02720172
KDAW 211751Z AUTO VRB04KT 10SM CLR 29/17 A3009 RMK AO2 SLP186 T02890167 10294 20178 58012
KDAW 211651Z AUTO VRB03KT 10SM CLR 29/17 A3010 RMK AO2 SLP190 T02940167
KDAW 211551Z AUTO VRB04KT 10SM CLR 28/17 A3012 RMK AO2 SLP195 T02830172
KDAW 211451Z AUTO VRB04KT 10SM CLR 26/17 A3013 RMK AO2 SLP198 T02610172 58006
KDAW 211351Z AUTO 00000KT 10SM CLR 24/16 A3013 RMK AO2 SLP200 T02390161
KDAW 211251Z AUTO 00000KT 10SM CLR 21/15 A3014 RMK AO2 SLP203 T02110150
KDAW 211151Z AUTO 00000KT 10SM CLR 18/14 A3015 RMK AO2 SLP204 T01780144 10183 20139 51008
KDAW 211051Z AUTO 27003KT 10SM CLR 17/13 A3014 RMK AO2 SLP203 T01670133